Terminal Aerodrome Forecast
Issued by NWS Wilmington, OH

Current Version | Previous Version | Graphics & Text | Print | Product List | Glossary On
Versions: 1 2 3 4 5 6 7 8 9 10 11 12 13 14 15 16 17 18 19 20 21
554
FTUS41 KILN 201135
TAFILN
TAF
KILN 201135Z 2012/2112 22013KT P6SM BKN250
     FM201800 23013KT P6SM BKN025
     FM202300 22008KT P6SM BKN015 OVC022
     FM210200 21006KT P6SM OVC015=

USA.gov is the U.S. government's official web portal to all federal, state and local government web resources and services.